createdAt,value
2022-10-31T00:00:30.530Z,4.97
2022-10-31T00:02:57.370Z,4.97
2022-10-31T00:05:24.064Z,6.00
2022-10-31T00:07:53.579Z,7.00
2022-10-31T00:10:20.109Z,4.80
2022-10-31T00:12:46.588Z,5.23
2022-10-31T00:15:13.038Z,5.47
2022-10-31T00:17:39.560Z,5.87
2022-10-31T00:20:06.596Z,5.27
2022-10-31T00:22:33.163Z,4.37
2022-10-31T00:24:59.641Z,5.00
2022-10-31T00:27:26.075Z,5.07
2022-10-31T00:29:52.634Z,6.67
2022-10-31T00:32:19.094Z,5.07
2022-10-31T00:34:45.570Z,5.77
2022-10-31T00:37:12.012Z,5.10
2022-10-31T00:39:38.451Z,4.50
2022-10-31T00:42:04.921Z,4.10
2022-10-31T00:44:31.361Z,4.70
2022-10-31T00:46:57.782Z,4.90
2022-10-31T00:49:24.339Z,4.30
2022-10-31T00:51:50.818Z,4.20
2022-10-31T00:54:17.369Z,5.00
2022-10-31T00:56:43.846Z,4.53
2022-10-31T00:59:10.309Z,4.80
2022-10-31T01:01:36.925Z,4.43
2022-10-31T01:04:03.745Z,4.27
2022-10-31T01:06:30.183Z,4.50
2022-10-31T01:08:56.711Z,3.80
2022-10-31T01:11:24.200Z,4.17
2022-10-31T01:13:52.830Z,5.17
2022-10-31T01:16:21.696Z,5.13
2022-10-31T01:18:48.453Z,4.23
2022-10-31T01:21:22.997Z,4.40
2022-10-31T01:23:50.317Z,4.50
2022-10-31T01:26:20.076Z,5.00
2022-10-31T01:28:49.098Z,4.93
2022-10-31T01:31:15.922Z,5.30
2022-10-31T01:33:42.439Z,4.97
2022-10-31T01:36:29.266Z,5.33
2022-10-31T01:38:58.863Z,4.00
2022-10-31T01:41:28.269Z,4.53
2022-10-31T01:44:21.176Z,3.90
2022-10-31T01:47:04.844Z,4.80
2022-10-31T01:49:41.580Z,4.37
2022-10-31T01:52:16.370Z,3.67
2022-10-31T01:54:48.908Z,3.83
2022-10-31T01:57:16.153Z,5.30
2022-10-31T01:59:47.570Z,4.60
2022-10-31T02:02:14.446Z,5.13
2022-10-31T02:04:41.267Z,4.07
2022-10-31T02:07:41.177Z,4.73
2022-10-31T02:10:07.887Z,3.73
2022-10-31T02:12:37.037Z,4.10
2022-10-31T02:15:04.666Z,5.20
2022-10-31T02:17:32.223Z,5.00
2022-10-31T02:20:10.894Z,3.67
2022-10-31T02:23:10.621Z,4.50
2022-10-31T02:26:05.340Z,3.67
2022-10-31T02:28:47.395Z,4.27
2022-10-31T02:31:25.771Z,4.00
2022-10-31T02:33:54.904Z,4.20
2022-10-31T02:36:46.839Z,4.40
2022-10-31T02:39:26.730Z,4.70
2022-10-31T02:42:17.902Z,4.97
2022-10-31T02:45:01.610Z,4.00
2022-10-31T02:47:30.091Z,4.70
2022-10-31T02:50:07.667Z,3.83
2022-10-31T02:52:35.519Z,4.00
2022-10-31T02:55:34.526Z,3.70
2022-10-31T02:58:08.372Z,4.70
2022-10-31T03:00:52.183Z,4.60
2022-10-31T03:03:27.871Z,5.13
2022-10-31T03:06:10.603Z,4.80
2022-10-31T03:08:43.703Z,4.17
2022-10-31T03:11:10.782Z,4.63
2022-10-31T03:13:55.341Z,3.67
2022-10-31T03:16:28.503Z,5.13
2022-10-31T03:19:01.169Z,3.70
2022-10-31T03:21:33.614Z,4.30
2022-10-31T03:24:00.877Z,4.60
2022-10-31T03:26:27.351Z,3.90
2022-10-31T03:28:58.156Z,4.40
2022-10-31T03:31:28.863Z,4.00
2022-10-31T03:33:57.445Z,4.40
2022-10-31T03:36:24.101Z,4.60
2022-10-31T03:38:51.412Z,5.17
2022-10-31T03:41:22.721Z,4.27
2022-10-31T03:44:02.736Z,3.93
2022-10-31T03:46:29.817Z,4.07
2022-10-31T03:48:56.532Z,5.10
2022-10-31T03:51:31.988Z,5.77
2022-10-31T03:54:27.690Z,3.83
2022-10-31T03:57:16.410Z,5.67
2022-10-31T03:59:46.189Z,4.20
2022-10-31T04:02:16.328Z,3.90
2022-10-31T04:04:45.085Z,4.37
2022-10-31T04:07:12.143Z,4.20
2022-10-31T04:09:42.743Z,3.90
2022-10-31T04:12:10.105Z,3.60
2022-10-31T04:14:38.843Z,5.10
2022-10-31T04:17:09.135Z,4.30
2022-10-31T04:19:35.624Z,5.30
2022-10-31T04:22:02.364Z,4.03
2022-10-31T04:24:28.820Z,4.90
2022-10-31T04:26:55.427Z,4.60
2022-10-31T04:29:22.011Z,3.80
2022-10-31T04:31:49.609Z,4.30
2022-10-31T04:34:16.429Z,3.83
2022-10-31T04:36:42.897Z,4.70
2022-10-31T04:39:09.407Z,4.43
2022-10-31T04:41:35.908Z,5.43
2022-10-31T04:44:02.350Z,4.77
2022-10-31T04:46:28.883Z,4.90
2022-10-31T04:48:55.435Z,4.03
2022-10-31T04:51:21.935Z,3.90
2022-10-31T04:53:48.403Z,4.17
2022-10-31T04:56:15.194Z,4.70
2022-10-31T04:58:41.645Z,4.97
2022-10-31T05:01:08.385Z,5.00
2022-10-31T05:03:34.976Z,4.40
2022-10-31T05:06:01.444Z,3.90
2022-10-31T05:08:28.093Z,5.70
2022-10-31T05:10:54.557Z,4.67
2022-10-31T05:15:48.429Z,4.30
2022-10-31T05:18:14.956Z,4.70
2022-10-31T05:20:41.455Z,4.20
2022-10-31T05:23:07.887Z,4.80
2022-10-31T05:25:34.376Z,5.40
2022-10-31T05:28:01.275Z,4.70
2022-10-31T05:30:32.442Z,4.83
2022-10-31T05:32:59.203Z,5.80
2022-10-31T05:35:31.031Z,4.93
2022-10-31T05:37:58.660Z,5.43
2022-10-31T05:40:26.171Z,5.30
2022-10-31T05:42:53.800Z,4.70
2022-10-31T05:45:21.335Z,5.10
2022-10-31T05:47:58.254Z,4.73
2022-10-31T05:50:26.603Z,4.27
2022-10-31T05:53:01.808Z,5.10
2022-10-31T05:55:29.456Z,6.00
2022-10-31T05:57:56.366Z,4.97
2022-10-31T06:00:23.382Z,5.23
2022-10-31T06:02:49.860Z,5.00
2022-10-31T06:05:17.629Z,4.77
2022-10-31T06:07:44.305Z,5.63
2022-10-31T06:10:11.030Z,4.73
2022-10-31T06:12:38.708Z,5.30
2022-10-31T06:15:09.583Z,5.60
2022-10-31T06:17:36.371Z,4.90
2022-10-31T06:20:03.675Z,5.43
2022-10-31T06:22:30.305Z,4.83
2022-10-31T06:24:56.753Z,5.60
2022-10-31T06:27:23.665Z,4.70
2022-10-31T06:29:56.016Z,5.37
2022-10-31T06:32:26.544Z,4.83
2022-10-31T06:34:53.011Z,4.43
2022-10-31T06:37:19.513Z,3.87
2022-10-31T06:39:46.009Z,4.73
2022-10-31T06:42:12.474Z,5.30
2022-10-31T06:44:38.987Z,4.80
2022-10-31T06:47:06.716Z,4.23
2022-10-31T06:49:33.209Z,5.47
2022-10-31T06:51:59.759Z,5.33
2022-10-31T06:54:26.302Z,4.57
2022-10-31T06:57:01.818Z,4.87
2022-10-31T06:59:28.321Z,4.37
2022-10-31T07:01:56.973Z,5.70
2022-10-31T07:04:23.788Z,5.67
2022-10-31T07:06:52.589Z,6.07
2022-10-31T07:09:19.109Z,6.17
2022-10-31T07:11:45.572Z,4.77
2022-10-31T07:14:12.123Z,5.43
2022-10-31T07:16:38.545Z,4.03
2022-10-31T07:19:05.022Z,4.83
2022-10-31T07:21:31.472Z,5.20
2022-10-31T07:23:58.294Z,6.20
2022-10-31T07:26:24.828Z,5.90
2022-10-31T07:28:51.402Z,4.50
2022-10-31T07:31:17.878Z,4.73
2022-10-31T07:33:44.421Z,5.77
2022-10-31T07:36:10.886Z,6.07
2022-10-31T07:38:37.355Z,5.30
2022-10-31T07:41:04.137Z,4.97
2022-10-31T07:43:30.729Z,4.87
2022-10-31T07:45:57.577Z,5.20
2022-10-31T07:48:24.081Z,5.40
2022-10-31T07:50:50.587Z,5.80
2022-10-31T07:53:17.304Z,6.63
2022-10-31T07:55:44.031Z,4.93
2022-10-31T07:58:17.815Z,5.20
2022-10-31T08:00:45.917Z,5.90
2022-10-31T08:03:14.947Z,5.13
2022-10-31T08:05:42.242Z,5.80
2022-10-31T08:08:08.989Z,7.40
2022-10-31T08:10:36.162Z,5.60
2022-10-31T08:13:08.022Z,6.57
2022-10-31T08:15:38.094Z,6.00
2022-10-31T08:18:05.326Z,5.70
2022-10-31T08:20:31.751Z,5.17
2022-10-31T08:23:03.606Z,5.00
2022-10-31T08:25:35.398Z,6.23
2022-10-31T08:28:05.373Z,5.43
2022-10-31T08:30:33.933Z,4.80
2022-10-31T08:33:01.443Z,5.37
2022-10-31T08:35:28.112Z,5.27
2022-10-31T08:37:56.193Z,4.63
2022-10-31T08:40:23.474Z,4.40
2022-10-31T08:42:57.519Z,4.27
2022-10-31T08:45:24.243Z,5.10
2022-10-31T08:47:50.939Z,6.20
2022-10-31T08:50:17.719Z,4.80
2022-10-31T08:53:04.301Z,4.67
2022-10-31T08:55:30.871Z,4.33
2022-10-31T08:57:59.068Z,4.63
2022-10-31T09:00:26.322Z,5.00
2022-10-31T09:02:59.878Z,5.00
2022-10-31T09:05:26.810Z,5.07
2022-10-31T09:07:57.448Z,3.97
2022-10-31T09:10:25.289Z,4.40
2022-10-31T09:13:07.489Z,4.00
2022-10-31T09:15:42.208Z,4.90
2022-10-31T09:18:09.487Z,4.53
2022-10-31T09:20:37.077Z,4.20
2022-10-31T09:23:05.948Z,4.77
2022-10-31T09:25:33.881Z,4.87
2022-10-31T09:28:02.202Z,4.27
2022-10-31T09:30:30.459Z,5.70
2022-10-31T09:32:58.281Z,5.20
2022-10-31T09:35:25.939Z,5.00
2022-10-31T09:38:00.786Z,5.37
2022-10-31T09:40:35.334Z,3.70
2022-10-31T09:43:31.108Z,4.30
2022-10-31T09:46:25.431Z,4.77
2022-10-31T09:49:29.225Z,5.27
2022-10-31T09:54:59.375Z,4.13
2022-10-31T09:57:29.650Z,4.63
2022-10-31T09:59:56.239Z,4.70
2022-10-31T10:02:49.211Z,5.40
2022-10-31T10:05:46.575Z,5.40
2022-10-31T10:08:28.021Z,5.37
2022-10-31T10:10:59.182Z,4.50
2022-10-31T10:14:03.431Z,4.30
2022-10-31T10:16:36.597Z,4.67
2022-10-31T10:19:21.450Z,5.20
2022-10-31T10:22:06.138Z,5.10
2022-10-31T10:24:54.348Z,5.77
2022-10-31T10:27:39.610Z,4.80
2022-10-31T10:30:14.450Z,4.77
2022-10-31T10:33:03.353Z,4.90
2022-10-31T10:35:40.578Z,5.30
2022-10-31T10:38:09.940Z,6.10
2022-10-31T10:40:36.571Z,5.70
2022-10-31T10:43:24.460Z,4.67
2022-10-31T10:46:30.704Z,4.30
2022-10-31T10:49:05.898Z,4.27
2022-10-31T10:52:02.189Z,3.43
2022-10-31T10:55:01.041Z,4.30
2022-10-31T10:57:38.791Z,3.97
2022-10-31T11:00:30.920Z,3.83
2022-10-31T11:02:57.699Z,4.50
2022-10-31T11:05:35.711Z,5.03
2022-10-31T11:08:02.584Z,5.07
2022-10-31T11:10:29.258Z,4.50
2022-10-31T11:13:13.466Z,5.40
2022-10-31T11:16:00.911Z,4.00
2022-10-31T11:18:30.648Z,4.33
2022-10-31T11:21:00.112Z,5.13
2022-10-31T11:23:28.547Z,4.90
2022-10-31T11:26:00.848Z,5.20
2022-10-31T11:28:30.388Z,5.40
2022-10-31T11:31:01.920Z,4.43
2022-10-31T11:33:40.427Z,4.93
2022-10-31T11:36:31.369Z,4.70
2022-10-31T11:38:58.906Z,4.60
2022-10-31T11:41:30.921Z,5.83
2022-10-31T11:43:59.517Z,5.27
2022-10-31T11:46:36.459Z,5.30
2022-10-31T11:49:04.236Z,4.87
2022-10-31T11:51:33.523Z,4.53
2022-10-31T11:54:02.993Z,4.10
2022-10-31T11:56:41.029Z,4.40
2022-10-31T11:59:18.682Z,4.83
2022-10-31T12:01:52.768Z,4.40
2022-10-31T12:04:19.781Z,4.53
2022-10-31T12:06:47.526Z,4.50
2022-10-31T12:09:23.402Z,4.20
2022-10-31T12:12:04.130Z,3.70
2022-10-31T12:14:59.814Z,5.53
2022-10-31T12:20:42.842Z,4.73
2022-10-31T12:23:36.873Z,5.50
2022-10-31T12:26:24.324Z,4.10
2022-10-31T12:28:56.796Z,4.70
2022-10-31T12:31:29.205Z,4.30
2022-10-31T12:33:59.123Z,4.43
2022-10-31T12:36:46.891Z,4.93
2022-10-31T12:39:35.150Z,4.00
2022-10-31T12:42:25.777Z,5.00
2022-10-31T12:45:06.307Z,5.07
2022-10-31T12:47:51.419Z,4.00
2022-10-31T12:50:27.640Z,4.60
2022-10-31T12:53:23.788Z,4.97
2022-10-31T12:56:12.532Z,5.27
2022-10-31T12:58:48.742Z,3.90
2022-10-31T13:01:25.828Z,3.67
2022-10-31T13:03:52.377Z,3.50
2022-10-31T13:06:32.014Z,3.70
2022-10-31T13:09:02.158Z,3.77
2022-10-31T13:11:48.362Z,3.93
2022-10-31T13:14:26.914Z,3.50
2022-10-31T13:16:55.117Z,5.17
2022-10-31T13:19:27.810Z,4.83
2022-10-31T13:22:20.120Z,3.10
2022-10-31T13:25:00.358Z,4.10
2022-10-31T13:27:31.061Z,5.00
2022-10-31T13:30:18.355Z,4.50
2022-10-31T13:32:49.569Z,5.10
2022-10-31T13:35:22.658Z,4.60
2022-10-31T13:38:05.099Z,4.03
2022-10-31T13:40:56.444Z,4.20
2022-10-31T13:43:34.620Z,4.80
2022-10-31T13:46:01.124Z,4.80
2022-10-31T13:48:42.277Z,4.67
2022-10-31T13:51:11.092Z,5.53
2022-10-31T13:54:08.349Z,5.30
2022-10-31T13:56:35.477Z,7.80
2022-10-31T13:59:04.982Z,5.80
2022-10-31T14:01:32.728Z,4.77
2022-10-31T14:04:24.721Z,4.77
2022-10-31T14:07:00.183Z,4.43
2022-10-31T14:09:33.231Z,4.77
2022-10-31T14:12:03.890Z,5.60
2022-10-31T14:14:36.237Z,3.70
2022-10-31T14:17:03.047Z,3.47
2022-10-31T14:19:29.503Z,5.53
2022-10-31T14:21:56.055Z,5.87
2022-10-31T14:24:25.537Z,5.13
2022-10-31T14:27:25.464Z,3.67
2022-10-31T14:29:51.916Z,4.50
2022-10-31T14:32:23.297Z,4.50
2022-10-31T14:34:59.791Z,4.77
2022-10-31T14:37:54.149Z,5.90
2022-10-31T14:40:45.560Z,7.17
2022-10-31T14:43:39.292Z,4.23
2022-10-31T14:46:11.758Z,5.17
2022-10-31T14:48:59.108Z,4.80
2022-10-31T14:51:33.429Z,3.50
2022-10-31T14:54:00.696Z,2.90
2022-10-31T14:56:30.365Z,4.00
2022-10-31T14:58:59.989Z,5.47
2022-10-31T15:01:32.433Z,4.30
2022-10-31T15:04:24.155Z,3.60
2022-10-31T15:06:55.551Z,4.43
2022-10-31T15:09:31.020Z,4.57
2022-10-31T15:12:02.609Z,4.57
2022-10-31T15:14:31.410Z,4.67
2022-10-31T15:16:58.976Z,3.77
2022-10-31T15:19:27.408Z,4.27
2022-10-31T15:21:55.938Z,5.10
2022-10-31T15:24:24.793Z,5.07
2022-10-31T15:26:56.918Z,5.83
2022-10-31T15:29:25.783Z,5.40
2022-10-31T15:31:59.954Z,5.10
2022-10-31T15:34:41.294Z,5.63
2022-10-31T15:37:15.995Z,4.20
2022-10-31T15:39:46.854Z,5.73
2022-10-31T15:42:39.814Z,5.20
2022-10-31T15:45:14.649Z,4.50
2022-10-31T15:47:47.205Z,4.03
2022-10-31T15:50:47.158Z,4.67
2022-10-31T15:53:32.586Z,5.90
2022-10-31T15:56:01.627Z,6.07
2022-10-31T15:58:29.592Z,6.50
2022-10-31T16:01:04.772Z,6.50
2022-10-31T16:03:33.129Z,7.80
2022-10-31T16:06:01.856Z,6.27
2022-10-31T16:08:31.095Z,5.60
2022-10-31T16:10:58.144Z,7.53
2022-10-31T16:13:28.956Z,9.73
2022-10-31T16:18:49.764Z,5.80
2022-10-31T16:21:16.388Z,6.30
2022-10-31T16:23:47.465Z,4.87
2022-10-31T16:26:18.342Z,4.87
2022-10-31T16:29:04.763Z,5.10
2022-10-31T16:31:38.356Z,6.80
2022-10-31T16:34:14.445Z,6.30
2022-10-31T16:36:40.942Z,6.30
2022-10-31T16:39:08.360Z,5.30
2022-10-31T16:41:41.685Z,5.13
2022-10-31T16:44:19.896Z,7.73
2022-10-31T16:46:46.412Z,9.97
2022-10-31T16:49:13.096Z,9.93
2022-10-31T16:51:39.634Z,11.47
2022-10-31T16:54:06.149Z,9.57
2022-10-31T16:56:34.425Z,9.70
2022-10-31T16:59:02.962Z,7.10
2022-10-31T17:01:29.831Z,7.23
2022-10-31T17:03:56.364Z,8.20
2022-10-31T17:06:22.850Z,8.13
2022-10-31T17:08:49.332Z,6.17
2022-10-31T17:11:22.661Z,6.60
2022-10-31T17:13:49.353Z,8.37
2022-10-31T17:16:16.067Z,8.33
2022-10-31T17:18:43.822Z,14.63
2022-10-31T17:21:17.241Z,21.70
2022-10-31T17:23:44.882Z,23.83
2022-10-31T17:26:11.492Z,13.57
2022-10-31T17:28:38.017Z,11.70
2022-10-31T17:31:04.560Z,11.80
2022-10-31T17:33:31.084Z,8.30
2022-10-31T17:35:57.544Z,7.93
2022-10-31T17:38:24.166Z,8.70
2022-10-31T17:40:50.673Z,6.40
2022-10-31T17:43:17.222Z,6.77
2022-10-31T17:45:43.693Z,6.50
2022-10-31T17:48:12.591Z,5.77
2022-10-31T17:50:39.059Z,6.20
2022-10-31T17:53:05.690Z,6.27
2022-10-31T17:55:36.160Z,6.53
2022-10-31T17:58:04.071Z,7.47
2022-10-31T18:00:30.553Z,5.67
2022-10-31T18:02:57.000Z,5.67
2022-10-31T18:05:23.476Z,6.03
2022-10-31T18:07:51.203Z,7.37
2022-10-31T18:10:18.214Z,6.70
2022-10-31T18:12:44.742Z,5.43
2022-10-31T18:15:11.426Z,4.80
2022-10-31T18:17:41.045Z,5.40
2022-10-31T18:20:09.547Z,5.53
2022-10-31T18:22:36.067Z,5.10
2022-10-31T18:25:03.059Z,5.70
2022-10-31T18:27:29.516Z,6.50
2022-10-31T18:29:56.439Z,4.60
2022-10-31T18:32:23.193Z,5.30
2022-10-31T18:34:50.966Z,6.00
2022-10-31T18:37:17.430Z,5.57
2022-10-31T18:39:43.976Z,5.37
2022-10-31T18:42:10.411Z,4.63
2022-10-31T18:44:37.941Z,4.23
2022-10-31T18:47:04.489Z,5.40
2022-10-31T18:49:32.867Z,5.20
2022-10-31T18:52:00.038Z,4.37
2022-10-31T18:54:26.534Z,4.17
2022-10-31T18:56:53.002Z,4.83
2022-10-31T18:59:19.439Z,5.17
2022-10-31T19:01:46.792Z,4.57
2022-10-31T19:04:13.827Z,4.00
2022-10-31T19:06:40.461Z,7.87
2022-10-31T19:09:09.543Z,4.93
2022-10-31T19:11:37.595Z,4.73
2022-10-31T19:14:04.733Z,4.30
2022-10-31T19:16:31.783Z,4.43
2022-10-31T19:18:59.816Z,4.57
2022-10-31T19:21:27.051Z,5.20
2022-10-31T19:23:56.239Z,4.17
2022-10-31T19:26:22.882Z,4.37
2022-10-31T19:28:49.342Z,5.83
2022-10-31T19:31:16.038Z,5.20
2022-10-31T19:33:42.495Z,5.10
2022-10-31T19:36:13.650Z,3.90
2022-10-31T19:38:42.098Z,5.93
2022-10-31T19:41:10.114Z,4.37
2022-10-31T19:43:36.958Z,5.17
2022-10-31T19:46:04.505Z,4.17
2022-10-31T19:48:31.765Z,4.30
2022-10-31T19:51:09.917Z,5.83
2022-10-31T19:53:36.559Z,5.23
2022-10-31T19:56:03.285Z,5.67
2022-10-31T19:58:29.886Z,4.83
2022-10-31T20:00:56.571Z,5.97
2022-10-31T20:03:23.575Z,4.30
2022-10-31T20:05:50.732Z,5.50
2022-10-31T20:08:21.066Z,7.17
2022-10-31T20:10:56.135Z,5.07
2022-10-31T20:13:23.022Z,5.13
2022-10-31T20:15:49.863Z,5.30
2022-10-31T20:18:16.795Z,5.23
2022-10-31T20:20:43.290Z,5.57
2022-10-31T20:23:10.105Z,4.30
2022-10-31T20:25:36.630Z,4.30
2022-10-31T20:28:03.111Z,3.43
2022-10-31T20:30:29.678Z,4.30
2022-10-31T20:32:56.111Z,4.87
2022-10-31T20:35:22.689Z,5.50
2022-10-31T20:37:49.159Z,4.27
2022-10-31T20:40:15.721Z,4.77
2022-10-31T20:42:42.148Z,4.60
2022-10-31T20:45:08.869Z,4.20
2022-10-31T20:47:35.381Z,4.13
2022-10-31T20:50:02.402Z,5.10
2022-10-31T20:52:28.891Z,5.27
2022-10-31T20:54:55.493Z,5.37
2022-10-31T20:57:21.957Z,5.73
2022-10-31T20:59:48.581Z,6.30
2022-10-31T21:02:15.393Z,7.90
2022-10-31T21:04:42.203Z,4.70
2022-10-31T21:07:08.666Z,4.47
2022-10-31T21:09:35.273Z,6.20
2022-10-31T21:12:01.746Z,5.07
2022-10-31T21:14:28.252Z,6.00
2022-10-31T21:16:54.732Z,5.17
2022-10-31T21:19:21.225Z,4.33
2022-10-31T21:21:47.690Z,4.67
2022-10-31T21:24:20.294Z,5.20
2022-10-31T21:26:49.108Z,7.87
2022-10-31T21:29:17.466Z,5.87
2022-10-31T21:31:44.493Z,5.57
2022-10-31T21:34:11.477Z,4.33
2022-10-31T21:36:38.152Z,6.80
2022-10-31T21:39:06.234Z,4.80
2022-10-31T21:41:32.734Z,5.53
2022-10-31T21:43:59.429Z,5.00
2022-10-31T21:46:31.045Z,4.93
2022-10-31T21:48:58.343Z,4.80
2022-10-31T21:51:26.922Z,5.20
2022-10-31T21:54:12.544Z,5.13
2022-10-31T21:56:39.600Z,4.20
2022-10-31T21:59:06.846Z,5.03
2022-10-31T22:01:34.133Z,6.13
2022-10-31T22:04:01.028Z,7.33
2022-10-31T22:06:28.318Z,6.43
2022-10-31T22:08:54.883Z,4.70
2022-10-31T22:11:21.784Z,4.00
2022-10-31T22:13:49.393Z,4.03
2022-10-31T22:16:18.092Z,4.63
2022-10-31T22:18:45.055Z,4.70
2022-10-31T22:21:15.675Z,4.63
2022-10-31T22:23:42.292Z,5.60
2022-10-31T22:26:14.493Z,5.73
2022-10-31T22:28:46.121Z,4.60
2022-10-31T22:31:15.515Z,4.53
2022-10-31T22:33:42.063Z,4.40
2022-10-31T22:36:10.916Z,5.83
2022-10-31T22:38:40.132Z,4.90
2022-10-31T22:41:15.573Z,5.37
2022-10-31T22:43:42.161Z,4.17
2022-10-31T22:46:17.392Z,4.37
2022-10-31T22:48:46.123Z,5.67
2022-10-31T22:51:15.484Z,4.77
2022-10-31T22:53:42.247Z,4.20
2022-10-31T22:56:12.198Z,5.90
2022-10-31T22:58:38.668Z,6.13
2022-10-31T23:01:14.881Z,5.43
2022-10-31T23:03:41.997Z,3.93
2022-10-31T23:06:12.230Z,4.70
2022-10-31T23:08:39.203Z,4.77
2022-10-31T23:11:25.458Z,5.30
2022-10-31T23:14:13.527Z,4.23
2022-10-31T23:16:48.726Z,4.30
2022-10-31T23:19:33.075Z,5.10
2022-10-31T23:22:04.967Z,5.23
2022-10-31T23:24:42.705Z,4.43
2022-10-31T23:27:21.859Z,4.00
2022-10-31T23:29:52.585Z,5.90
2022-10-31T23:32:36.351Z,3.53
2022-10-31T23:35:06.430Z,4.73
2022-10-31T23:37:36.467Z,5.17
2022-10-31T23:40:03.295Z,5.30
2022-10-31T23:42:29.880Z,7.53
2022-10-31T23:44:56.412Z,4.00
2022-10-31T23:47:23.434Z,4.80
2022-10-31T23:49:50.634Z,4.10
2022-10-31T23:52:17.322Z,5.00
2022-10-31T23:54:43.768Z,5.37
2022-10-31T23:57:11.442Z,6.50
2022-10-31T23:59:37.994Z,6.30
